Mendon, MA (01756)

4:50 AM EST on November 28, 2014 (GMT -0500)
Lake Nipmuc | Change Station
CLOSE
Current Station
Personal Weather Station
Location: Mendon, MA
Elevation: 400 ft
Nearby Weather Stations

Elev 400 ft 42.09 °N, 71.57 °W | Updated 3 seconds ago

Overcast
Overcast
31.0 °F
Feels Like 25 °F
N
5.8
Wind Variable Wind from West
Gusts 5.8 mph

Today
High -- | Low -- °F
--% Chance of Precip.
Yesterday
High -- | Low -- °F
Precip. -- in
6:51 AM 4:16 PM
Waxing Crescent, 38% visible
Pressure 29.97 in
Visibility 10.0 miles
Clouds Few 1000 ft
Mostly Cloudy 2500 ft
Overcast 6500 ft
Windchill 25 °F
Dew Point 31 °F
Humidity 100%
Rainfall 0.00 in
Snow Depth Not available.
UV 0 out of 12
Pollen .10 out of 12
Air Quality Not available.
Flu Activity Not available.
METAR KSFZ 280935Z 32008KT 10SM FEW010 BKN025 OVC065 M02/M07 A2997 RMK AO1

More Conditions Fewer Conditions

Pressure 29.97 in
Visibility 10.0 miles
Clouds Few 1000 ft
Mostly Cloudy 2500 ft
Overcast 6500 ft
Windchill 25 °F
Dew Point 31 °F
Humidity 100%
Rainfall 0.00 in
Snow Depth Not available.
UV 0 out of 12
Pollen .10 out of 12
Air Quality Not available.
Flu Activity Not available.
METAR KSFZ 280935Z 32008KT 10SM FEW010 BKN025 OVC065 M02/M07 A2997 RMK AO1

More Conditions Fewer Conditions

10-Day Weather Forecast

Almanac

Astronomy

Nov. 28, 2014 Rise Set
Actual Time
Civil Twilight
Nautical Twilight
Astronomical Twilight
Moon
Length of Visible Light
Length of Day
Tomorrow will be .
, % of the Moon is Illuminated

Today's Extremes

State Highs State Lows

Community

WunderPhotos

Upload Photos

1,774,190 photos uploaded!

WunderBlogs® & News

Nearby

Air Quality

  Air Quality AQ Index Pollutant
Not available.

Snow Depth

Station Depth Elevation

Earthquake Activity

City Distance Mag. Time & Date
Minimum magnitude displayed is 2.5.

Coastal Water Temperatures

Place Temperature

Nearby Weather Stations